YPKG/KGI METAR and TAF weather

Enter ICAO airport designator
Station Type Date Time Source
YPKG METAR 2021/09/20 06:00 UTC NOAA

YPKG 200600Z AUTO 10011KT 9999 // NCD 19/M00 Q1032 RF00.0/000.0


Station Type Date Time Source
YPKG Decoded METAR 2021/09/20 06:00 UTC NOAA

Kalgoorlie Boulder Amo, Australia (YPKG) 30-47S 121-27E 370M
Sep 20, 2021 - 02:00 AM EDT / 2021.09.20 0600 UTC
Wind: from the E (100 degrees) at 13 MPH (11 KT):0
Visibility: greater than 7 mile(s):0
Temperature: 66 F (19 C)
Dew Point: 32 F (0 C)
Relative Humidity: 27%
Pressure (altimeter): 30.47 in. Hg (1032 hPa)
ob: YPKG 200600Z AUTO 10011KT 9999 // NCD 19/M00 Q1032 RF00.0/000.0
cycle: 6

Station Type Date Time Source
YPKG TAF 2021/09/20 06:00 UTC NOAA

TAF YPKG 200505Z 2006/2106 12010KT CAVOK
FM202300 06008KT CAVOK

Example: see airport list